sensor_id;sensor_type;location;lat;lon;timestamp;pressure;altitude;pressure_sealevel;temperature;humidity
34674;BME280;20879;55.668;37.858;2023-07-13T00:02:10;98853.75;;;12.85;79.09
34674;BME280;20879;55.668;37.858;2023-07-13T00:04:54;98855.69;;;12.80;79.57
34674;BME280;20879;55.668;37.858;2023-07-13T00:07:24;98853.88;;;12.82;79.29
34674;BME280;20879;55.668;37.858;2023-07-13T00:09:53;98848.56;;;12.85;79.59
34674;BME280;20879;55.668;37.858;2023-07-13T00:12:24;98850.25;;;12.86;79.56
34674;BME280;20879;55.668;37.858;2023-07-13T00:14:55;98846.53;;;12.93;78.98
34674;BME280;20879;55.668;37.858;2023-07-13T00:17:25;98854.38;;;12.92;79.36
34674;BME280;20879;55.668;37.858;2023-07-13T00:20:03;98851.78;;;12.92;79.17
34674;BME280;20879;55.668;37.858;2023-07-13T00:22:34;98851.84;;;12.90;79.41
34674;BME280;20879;55.668;37.858;2023-07-13T00:25:04;98855.22;;;12.92;79.00
34674;BME280;20879;55.668;37.858;2023-07-13T00:27:38;98850.94;;;12.91;79.21
34674;BME280;20879;55.668;37.858;2023-07-13T00:30:08;98852.09;;;12.84;79.19
34674;BME280;20879;55.668;37.858;2023-07-13T00:32:38;98847.72;;;12.85;79.60
34674;BME280;20879;55.668;37.858;2023-07-13T00:35:10;98842.72;;;12.80;79.86
34674;BME280;20879;55.668;37.858;2023-07-13T00:37:39;98849.38;;;12.87;79.60
34674;BME280;20879;55.668;37.858;2023-07-13T00:40:11;98845.91;;;12.87;79.80
34674;BME280;20879;55.668;37.858;2023-07-13T00:42:41;98848.44;;;12.88;79.88
34674;BME280;20879;55.668;37.858;2023-07-13T00:48:10;98843.25;;;12.88;79.89
34674;BME280;20879;55.668;37.858;2023-07-13T00:50:43;98847.47;;;12.91;79.98
34674;BME280;20879;55.668;37.858;2023-07-13T00:53:19;98853.69;;;12.87;79.99
34674;BME280;20879;55.668;37.858;2023-07-13T00:55:50;98855.34;;;12.89;80.34
34674;BME280;20879;55.668;37.858;2023-07-13T00:58:20;98852.75;;;12.89;80.29
34674;BME280;20879;55.668;37.858;2023-07-13T01:00:51;98840.72;;;12.87;80.10
34674;BME280;20879;55.668;37.858;2023-07-13T01:03:21;98858.75;;;12.91;80.36
34674;BME280;20879;55.668;37.858;2023-07-13T01:05:57;98847.31;;;12.96;79.88
34674;BME280;20879;55.668;37.858;2023-07-13T01:08:27;98844.81;;;12.92;80.19
34674;BME280;20879;55.668;37.858;2023-07-13T01:10:59;98843.16;;;12.91;80.07
34674;BME280;20879;55.668;37.858;2023-07-13T01:13:34;98842.09;;;12.96;80.32
34674;BME280;20879;55.668;37.858;2023-07-13T01:16:11;98849.06;;;12.95;80.45
34674;BME280;20879;55.668;37.858;2023-07-13T01:18:42;98831.97;;;12.89;80.03
34674;BME280;20879;55.668;37.858;2023-07-13T01:21:14;98840.56;;;12.91;80.54
34674;BME280;20879;55.668;37.858;2023-07-13T01:23:43;98839.03;;;13.08;79.86
34674;BME280;20879;55.668;37.858;2023-07-13T01:26:14;98842.84;;;12.99;79.75
34674;BME280;20879;55.668;37.858;2023-07-13T01:28:43;98837.72;;;12.98;80.17
34674;BME280;20879;55.668;37.858;2023-07-13T01:31:13;98826.44;;;12.97;80.01
34674;BME280;20879;55.668;37.858;2023-07-13T01:33:42;98828.03;;;13.01;80.05
34674;BME280;20879;55.668;37.858;2023-07-13T01:36:14;98825.38;;;13.03;80.46
34674;BME280;20879;55.668;37.858;2023-07-13T01:38:43;98830.44;;;13.06;79.98
34674;BME280;20879;55.668;37.858;2023-07-13T01:41:13;98827.84;;;13.06;80.35
34674;BME280;20879;55.668;37.858;2023-07-13T01:43:42;98826.94;;;13.07;80.21
34674;BME280;20879;55.668;37.858;2023-07-13T01:46:11;98826.94;;;13.07;80.05
34674;BME280;20879;55.668;37.858;2023-07-13T01:48:55;98832.25;;;13.04;80.24
34674;BME280;20879;55.668;37.858;2023-07-13T01:51:26;98831.44;;;13.03;80.74
34674;BME280;20879;55.668;37.858;2023-07-13T01:53:55;98825.25;;;13.06;80.55
34674;BME280;20879;55.668;37.858;2023-07-13T01:56:30;98828.66;;;13.08;80.27
34674;BME280;20879;55.668;37.858;2023-07-13T01:58:59;98824.09;;;13.13;80.20
34674;BME280;20879;55.668;37.858;2023-07-13T02:01:31;98822.44;;;13.12;80.60
34674;BME280;20879;55.668;37.858;2023-07-13T02:04:01;98822.50;;;13.10;80.55
34674;BME280;20879;55.668;37.858;2023-07-13T02:06:35;98828.53;;;13.11;80.57
34674;BME280;20879;55.668;37.858;2023-07-13T02:09:04;98824.16;;;13.11;80.66
34674;BME280;20879;55.668;37.858;2023-07-13T02:11:34;98825.03;;;13.12;80.98
34674;BME280;20879;55.668;37.858;2023-07-13T02:14:09;98827.75;;;13.09;80.70
34674;BME280;20879;55.668;37.858;2023-07-13T02:16:44;98818.13;;;13.11;80.97
34674;BME280;20879;55.668;37.858;2023-07-13T02:19:21;98819.69;;;13.15;81.05
34674;BME280;20879;55.668;37.858;2023-07-13T02:21:58;98816.38;;;13.11;80.93
34674;BME280;20879;55.668;37.858;2023-07-13T02:24:33;98816.28;;;13.13;81.14
34674;BME280;20879;55.668;37.858;2023-07-13T02:27:02;98818.84;;;13.15;81.12
34674;BME280;20879;55.668;37.858;2023-07-13T02:29:32;98805.19;;;13.09;80.87
34674;BME280;20879;55.668;37.858;2023-07-13T02:32:01;98808.97;;;13.23;80.65
34674;BME280;20879;55.668;37.858;2023-07-13T02:34:31;98794.47;;;13.17;81.08
34674;BME280;20879;55.668;37.858;2023-07-13T02:37:02;98804.63;;;13.23;81.21
34674;BME280;20879;55.668;37.858;2023-07-13T02:39:37;98802.03;;;13.23;80.88
34674;BME280;20879;55.668;37.858;2023-07-13T02:42:11;98796.75;;;13.25;80.89
34674;BME280;20879;55.668;37.858;2023-07-13T02:44:42;98803.66;;;13.26;80.74
34674;BME280;20879;55.668;37.858;2023-07-13T02:47:12;98800.03;;;13.30;80.82
34674;BME280;20879;55.668;37.858;2023-07-13T02:49:47;98803.34;;;13.34;80.81
34674;BME280;20879;55.668;37.858;2023-07-13T02:52:18;98800.81;;;13.32;80.87
34674;BME280;20879;55.668;37.858;2023-07-13T02:54:48;98803.84;;;13.43;80.81
34674;BME280;20879;55.668;37.858;2023-07-13T02:57:22;98804.63;;;13.45;80.24
34674;BME280;20879;55.668;37.858;2023-07-13T02:59:52;98808.59;;;13.54;80.23
34674;BME280;20879;55.668;37.858;2023-07-13T03:02:21;98806.66;;;13.59;80.29
34674;BME280;20879;55.668;37.858;2023-07-13T03:04:51;98806.59;;;13.61;80.21
34674;BME280;20879;55.668;37.858;2023-07-13T03:07:32;98798.44;;;13.69;80.24
34674;BME280;20879;55.668;37.858;2023-07-13T03:10:01;98795.84;;;13.69;79.88
34674;BME280;20879;55.668;37.858;2023-07-13T03:12:40;98790.66;;;13.69;79.90
34674;BME280;20879;55.668;37.858;2023-07-13T03:15:17;98794.41;;;13.61;79.66
34674;BME280;20879;55.668;37.858;2023-07-13T03:17:54;98793.38;;;13.66;80.19
34674;BME280;20879;55.668;37.858;2023-07-13T03:20:23;98798.38;;;13.70;79.49
34674;BME280;20879;55.668;37.858;2023-07-13T03:23:12;98796.38;;;13.77;79.43
34674;BME280;20879;55.668;37.858;2023-07-13T03:25:42;98802.63;;;13.73;79.53
34674;BME280;20879;55.668;37.858;2023-07-13T03:28:12;98794.69;;;13.76;79.54
34674;BME280;20879;55.668;37.858;2023-07-13T03:30:42;98778.63;;;13.66;79.63
34674;BME280;20879;55.668;37.858;2023-07-13T03:33:12;98798.06;;;13.78;79.69
34674;BME280;20879;55.668;37.858;2023-07-13T03:35:46;98804.88;;;13.80;79.70
34674;BME280;20879;55.668;37.858;2023-07-13T03:38:18;98808.16;;;13.86;79.46
34674;BME280;20879;55.668;37.858;2023-07-13T03:40:47;98809.38;;;13.97;78.96
34674;BME280;20879;55.668;37.858;2023-07-13T03:43:22;98815.81;;;13.89;78.94
34674;BME280;20879;55.668;37.858;2023-07-13T03:45:52;98818.56;;;13.86;79.19
34674;BME280;20879;55.668;37.858;2023-07-13T03:48:22;98806.38;;;13.86;79.56
34674;BME280;20879;55.668;37.858;2023-07-13T03:50:51;98806.00;;;13.95;79.02
34674;BME280;20879;55.668;37.858;2023-07-13T03:53:35;98804.75;;;14.04;78.80
34674;BME280;20879;55.668;37.858;2023-07-13T03:56:11;98805.50;;;14.06;78.65
34674;BME280;20879;55.668;37.858;2023-07-13T03:58:44;98808.19;;;14.05;78.98
34674;BME280;20879;55.668;37.858;2023-07-13T04:01:23;98805.72;;;14.02;78.51
34674;BME280;20879;55.668;37.858;2023-07-13T04:03:53;98810.78;;;14.05;78.95
34674;BME280;20879;55.668;37.858;2023-07-13T04:06:27;98807.28;;;14.06;78.86
34674;BME280;20879;55.668;37.858;2023-07-13T04:09:00;98809.53;;;14.13;78.34
34674;BME280;20879;55.668;37.858;2023-07-13T04:11:42;98809.41;;;14.16;78.36
34674;BME280;20879;55.668;37.858;2023-07-13T04:14:17;98813.16;;;14.30;78.81
34674;BME280;20879;55.668;37.858;2023-07-13T04:16:47;98813.66;;;14.38;78.14
34674;BME280;20879;55.668;37.858;2023-07-13T04:19:17;98814.22;;;14.45;77.87
34674;BME280;20879;55.668;37.858;2023-07-13T04:21:46;98797.66;;;14.46;77.56
34674;BME280;20879;55.668;37.858;2023-07-13T04:24:23;98806.75;;;14.56;77.77
34674;BME280;20879;55.668;37.858;2023-07-13T04:26:53;98799.63;;;14.61;77.12
34674;BME280;20879;55.668;37.858;2023-07-13T04:29:26;98807.28;;;14.64;76.82
34674;BME280;20879;55.668;37.858;2023-07-13T04:32:00;98809.34;;;14.56;77.04
34674;BME280;20879;55.668;37.858;2023-07-13T04:34:30;98812.88;;;14.55;76.89
34674;BME280;20879;55.668;37.858;2023-07-13T04:37:10;98812.56;;;14.63;76.90
34674;BME280;20879;55.668;37.858;2023-07-13T04:39:42;98805.66;;;14.62;76.61
34674;BME280;20879;55.668;37.858;2023-07-13T04:42:11;98813.59;;;14.78;76.21
34674;BME280;20879;55.668;37.858;2023-07-13T04:44:41;98805.75;;;14.97;75.84
34674;BME280;20879;55.668;37.858;2023-07-13T04:47:15;98800.09;;;15.06;75.56
34674;BME280;20879;55.668;37.858;2023-07-13T04:49:45;98807.53;;;15.14;74.85
34674;BME280;20879;55.668;37.858;2023-07-13T04:52:14;98787.22;;;15.03;74.87
34674;BME280;20879;55.668;37.858;2023-07-13T04:54:45;98798.81;;;15.15;74.37
34674;BME280;20879;55.668;37.858;2023-07-13T04:57:15;98799.28;;;15.06;74.92
34674;BME280;20879;55.668;37.858;2023-07-13T04:59:45;98795.19;;;15.00;74.79
34674;BME280;20879;55.668;37.858;2023-07-13T05:02:14;98808.72;;;15.08;75.09
34674;BME280;20879;55.668;37.858;2023-07-13T05:04:47;98806.03;;;15.10;74.98
34674;BME280;20879;55.668;37.858;2023-07-13T05:07:16;98802.22;;;15.17;74.82
34674;BME280;20879;55.668;37.858;2023-07-13T05:09:48;98812.19;;;15.26;74.91
34674;BME280;20879;55.668;37.858;2023-07-13T05:12:22;98816.03;;;15.36;74.60
34674;BME280;20879;55.668;37.858;2023-07-13T05:15:06;98801.59;;;15.47;74.21
34674;BME280;20879;55.668;37.858;2023-07-13T05:17:35;98820.78;;;15.63;74.05
34674;BME280;20879;55.668;37.858;2023-07-13T05:20:07;98815.78;;;15.76;73.59
34674;BME280;20879;55.668;37.858;2023-07-13T05:22:37;98815.00;;;16.09;72.89
34674;BME280;20879;55.668;37.858;2023-07-13T05:25:09;98798.13;;;16.48;71.28
34674;BME280;20879;55.668;37.858;2023-07-13T05:27:39;98796.69;;;16.74;70.23
34674;BME280;20879;55.668;37.858;2023-07-13T05:30:09;98816.19;;;17.17;69.26
34674;BME280;20879;55.668;37.858;2023-07-13T05:32:39;98791.59;;;17.50;67.38
34674;BME280;20879;55.668;37.858;2023-07-13T05:35:08;98815.69;;;17.71;66.75
34674;BME280;20879;55.668;37.858;2023-07-13T05:37:38;98811.19;;;18.03;65.59
34674;BME280;20879;55.668;37.858;2023-07-13T05:40:10;98808.28;;;18.22;64.40
34674;BME280;20879;55.668;37.858;2023-07-13T05:42:43;98799.03;;;18.31;63.48
34674;BME280;20879;55.668;37.858;2023-07-13T05:45:12;98792.03;;;18.17;63.76
34674;BME280;20879;55.668;37.858;2023-07-13T05:47:46;98800.91;;;18.00;63.66
34674;BME280;20879;55.668;37.858;2023-07-13T05:50:16;98811.09;;;17.74;64.20
34674;BME280;20879;55.668;37.858;2023-07-13T05:52:51;98798.38;;;17.68;64.78
34674;BME280;20879;55.668;37.858;2023-07-13T05:55:23;98797.06;;;17.91;63.79
34674;BME280;20879;55.668;37.858;2023-07-13T05:58:05;98800.22;;;18.25;63.01
34674;BME280;20879;55.668;37.858;2023-07-13T06:00:35;98797.41;;;18.57;62.48
34674;BME280;20879;55.668;37.858;2023-07-13T06:03:05;98782.28;;;18.75;61.43
34674;BME280;20879;55.668;37.858;2023-07-13T06:05:35;98796.88;;;18.79;61.19
34674;BME280;20879;55.668;37.858;2023-07-13T06:08:18;98791.72;;;18.92;60.39
34674;BME280;20879;55.668;37.858;2023-07-13T06:10:54;98791.16;;;18.87;60.10
34674;BME280;20879;55.668;37.858;2023-07-13T06:13:23;98794.81;;;18.84;60.38
34674;BME280;20879;55.668;37.858;2023-07-13T06:15:53;98798.78;;;18.63;60.19
34674;BME280;20879;55.668;37.858;2023-07-13T06:18:22;98808.72;;;18.58;60.94
34674;BME280;20879;55.668;37.858;2023-07-13T06:20:56;98783.81;;;18.65;60.33
34674;BME280;20879;55.668;37.858;2023-07-13T06:23:26;98790.13;;;18.90;60.43
34674;BME280;20879;55.668;37.858;2023-07-13T06:25:57;98782.06;;;19.20;59.35
34674;BME280;20879;55.668;37.858;2023-07-13T06:28:27;98786.00;;;19.66;58.89
34674;BME280;20879;55.668;37.858;2023-07-13T06:30:58;98769.53;;;19.51;58.36
34674;BME280;20879;55.668;37.858;2023-07-13T06:33:28;98760.50;;;19.68;57.20
34674;BME280;20879;55.668;37.858;2023-07-13T06:36:05;98768.38;;;19.68;56.64
34674;BME280;20879;55.668;37.858;2023-07-13T06:38:36;98769.25;;;19.81;56.82
34674;BME280;20879;55.668;37.858;2023-07-13T06:41:10;98763.69;;;19.99;55.88
34674;BME280;20879;55.668;37.858;2023-07-13T06:43:40;98752.91;;;20.28;55.34
34674;BME280;20879;55.668;37.858;2023-07-13T06:46:10;98757.75;;;20.34;53.66
34674;BME280;20879;55.668;37.858;2023-07-13T06:48:39;98748.91;;;20.35;53.86
34674;BME280;20879;55.668;37.858;2023-07-13T06:51:09;98764.31;;;20.52;53.33
34674;BME280;20879;55.668;37.858;2023-07-13T06:53:38;98755.59;;;20.52;52.99
34674;BME280;20879;55.668;37.858;2023-07-13T06:56:12;98758.25;;;20.39;52.11
34674;BME280;20879;55.668;37.858;2023-07-13T06:58:41;98746.50;;;20.69;51.79
34674;BME280;20879;55.668;37.858;2023-07-13T07:01:10;98756.50;;;20.27;51.36
34674;BME280;20879;55.668;37.858;2023-07-13T07:03:40;98755.88;;;20.10;52.04
34674;BME280;20879;55.668;37.858;2023-07-13T07:06:14;98762.16;;;20.20;51.70
34674;BME280;20879;55.668;37.858;2023-07-13T07:08:44;98766.59;;;20.07;51.90
34674;BME280;20879;55.668;37.858;2023-07-13T07:11:22;98777.09;;;19.68;52.60
34674;BME280;20879;55.668;37.858;2023-07-13T07:13:53;98775.72;;;19.10;53.75
34674;BME280;20879;55.668;37.858;2023-07-13T07:16:24;98784.47;;;18.68;55.10
34674;BME280;20879;55.668;37.858;2023-07-13T07:19:05;98789.56;;;18.28;57.08
34674;BME280;20879;55.668;37.858;2023-07-13T07:21:42;98793.59;;;18.05;58.11
34674;BME280;20879;55.668;37.858;2023-07-13T07:24:12;98785.69;;;17.76;59.17
34674;BME280;20879;55.668;37.858;2023-07-13T07:26:49;98764.91;;;17.59;59.94
34674;BME280;20879;55.668;37.858;2023-07-13T07:29:22;98787.81;;;17.70;59.86
34674;BME280;20879;55.668;37.858;2023-07-13T07:31:56;98777.84;;;17.76;60.25
34674;BME280;20879;55.668;37.858;2023-07-13T07:34:36;98784.06;;;17.90;59.94
34674;BME280;20879;55.668;37.858;2023-07-13T07:37:06;98789.09;;;17.93;59.75
34674;BME280;20879;55.668;37.858;2023-07-13T07:39:38;98792.75;;;18.05;59.60
34674;BME280;20879;55.668;37.858;2023-07-13T07:42:15;98787.63;;;18.17;59.23
34674;BME280;20879;55.668;37.858;2023-07-13T07:44:44;98788.16;;;18.37;58.76
34674;BME280;20879;55.668;37.858;2023-07-13T07:47:18;98784.41;;;18.27;58.47
34674;BME280;20879;55.668;37.858;2023-07-13T07:49:50;98787.41;;;18.35;58.99
34674;BME280;20879;55.668;37.858;2023-07-13T07:52:32;98791.69;;;18.50;58.18
34674;BME280;20879;55.668;37.858;2023-07-13T07:55:03;98786.19;;;18.55;57.25
34674;BME280;20879;55.668;37.858;2023-07-13T07:57:37;98784.09;;;18.60;56.54
34674;BME280;20879;55.668;37.858;2023-07-13T08:00:11;98744.78;;;18.19;56.67
34674;BME280;20879;55.668;37.858;2023-07-13T08:02:45;98770.59;;;18.25;56.35
34674;BME280;20879;55.668;37.858;2023-07-13T08:05:18;98795.94;;;17.95;56.82
34674;BME280;20879;55.668;37.858;2023-07-13T08:08:05;98804.22;;;17.73;57.97
34674;BME280;20879;55.668;37.858;2023-07-13T08:10:39;98801.66;;;17.57;58.53
34674;BME280;20879;55.668;37.858;2023-07-13T08:13:11;98817.06;;;17.32;60.17
34674;BME280;20879;55.668;37.858;2023-07-13T08:15:41;98800.25;;;17.05;61.27
34674;BME280;20879;55.668;37.858;2023-07-13T08:18:21;98811.88;;;17.00;62.92
34674;BME280;20879;55.668;37.858;2023-07-13T08:20:50;98814.69;;;16.97;62.69
34674;BME280;20879;55.668;37.858;2023-07-13T08:23:19;98803.22;;;16.99;63.52
34674;BME280;20879;55.668;37.858;2023-07-13T08:25:51;98806.84;;;16.97;63.65
34674;BME280;20879;55.668;37.858;2023-07-13T08:28:27;98800.16;;;17.07;63.14
34674;BME280;20879;55.668;37.858;2023-07-13T08:31:00;98801.25;;;17.03;63.85
34674;BME280;20879;55.668;37.858;2023-07-13T08:33:30;98796.28;;;17.14;63.31
34674;BME280;20879;55.668;37.858;2023-07-13T08:35:59;98802.06;;;17.35;63.23
34674;BME280;20879;55.668;37.858;2023-07-13T08:38:28;98799.47;;;17.50;63.48
34674;BME280;20879;55.668;37.858;2023-07-13T08:40:58;98802.31;;;17.61;63.31
34674;BME280;20879;55.668;37.858;2023-07-13T08:43:34;98795.88;;;17.67;62.54
34674;BME280;20879;55.668;37.858;2023-07-13T08:46:09;98789.63;;;17.84;62.94
34674;BME280;20879;55.668;37.858;2023-07-13T08:48:43;98803.94;;;17.78;62.94
34674;BME280;20879;55.668;37.858;2023-07-13T08:51:40;98779.75;;;17.58;63.25
34674;BME280;20879;55.668;37.858;2023-07-13T08:54:21;98806.03;;;17.57;63.49
34674;BME280;20879;55.668;37.858;2023-07-13T08:56:53;98796.59;;;17.54;63.60
34674;BME280;20879;55.668;37.858;2023-07-13T08:59:33;98808.63;;;17.57;63.33
34674;BME280;20879;55.668;37.858;2023-07-13T09:02:25;98800.69;;;17.58;61.98
34674;BME280;20879;55.668;37.858;2023-07-13T09:04:58;98802.53;;;17.72;61.35
34674;BME280;20879;55.668;37.858;2023-07-13T09:07:45;98804.13;;;17.75;60.28
34674;BME280;20879;55.668;37.858;2023-07-13T09:10:21;98810.50;;;17.85;60.02
34674;BME280;20879;55.668;37.858;2023-07-13T09:13:00;98812.22;;;18.01;59.74
34674;BME280;20879;55.668;37.858;2023-07-13T09:15:39;98811.09;;;18.19;59.92
34674;BME280;20879;55.668;37.858;2023-07-13T09:18:21;98797.31;;;18.59;59.23
34674;BME280;20879;55.668;37.858;2023-07-13T09:20:55;98813.03;;;18.59;59.01
34674;BME280;20879;55.668;37.858;2023-07-13T09:23:28;98825.75;;;18.50;59.74
34674;BME280;20879;55.668;37.858;2023-07-13T09:26:02;98821.78;;;18.45;59.94
34674;BME280;20879;55.668;37.858;2023-07-13T09:28:42;98817.94;;;18.22;60.46
34674;BME280;20879;55.668;37.858;2023-07-13T09:31:16;98834.09;;;18.28;61.17
34674;BME280;20879;55.668;37.858;2023-07-13T09:33:48;98837.22;;;18.49;61.43
34674;BME280;20879;55.668;37.858;2023-07-13T09:36:20;98830.75;;;18.55;62.05
34674;BME280;20879;55.668;37.858;2023-07-13T09:38:58;98833.53;;;18.52;63.27
34674;BME280;20879;55.668;37.858;2023-07-13T09:41:35;98839.25;;;18.59;64.41
34674;BME280;20879;55.668;37.858;2023-07-13T09:44:15;98839.16;;;18.60;63.98
34674;BME280;20879;55.668;37.858;2023-07-13T09:46:54;98828.28;;;18.52;64.53
34674;BME280;20879;55.668;37.858;2023-07-13T09:49:24;98821.28;;;18.24;64.12
34674;BME280;20879;55.668;37.858;2023-07-13T09:51:58;98841.50;;;17.77;66.34
34674;BME280;20879;55.668;37.858;2023-07-13T09:54:29;98839.06;;;17.43;67.09
34674;BME280;20879;55.668;37.858;2023-07-13T09:56:59;98831.69;;;17.20;68.33
34674;BME280;20879;55.668;37.858;2023-07-13T09:59:32;98838.13;;;16.98;69.43
34674;BME280;20879;55.668;37.858;2023-07-13T10:02:23;98827.28;;;16.90;70.03
34674;BME280;20879;55.668;37.858;2023-07-13T10:05:05;98823.09;;;16.70;69.87
34674;BME280;20879;55.668;37.858;2023-07-13T10:07:39;98828.13;;;16.57;70.86
34674;BME280;20879;55.668;37.858;2023-07-13T10:10:15;98840.94;;;16.46;71.93
34674;BME280;20879;55.668;37.858;2023-07-13T10:12:45;98835.13;;;16.40;72.21
34674;BME280;20879;55.668;37.858;2023-07-13T10:15:17;98839.53;;;16.40;72.14
34674;BME280;20879;55.668;37.858;2023-07-13T10:17:59;98843.13;;;16.37;72.82
34674;BME280;20879;55.668;37.858;2023-07-13T10:20:30;98831.81;;;16.21;72.97
34674;BME280;20879;55.668;37.858;2023-07-13T10:23:02;98833.38;;;16.23;73.65
34674;BME280;20879;55.668;37.858;2023-07-13T10:25:34;98841.72;;;16.14;73.90
34674;BME280;20879;55.668;37.858;2023-07-13T10:28:11;98835.38;;;16.02;74.86
34674;BME280;20879;55.668;37.858;2023-07-13T10:30:52;98837.91;;;15.86;75.12
34674;BME280;20879;55.668;37.858;2023-07-13T10:33:30;98844.56;;;15.75;76.85
34674;BME280;20879;55.668;37.858;2023-07-13T10:36:16;98842.13;;;15.71;77.54
34674;BME280;20879;55.668;37.858;2023-07-13T10:38:47;98851.72;;;15.53;77.82
34674;BME280;20879;55.668;37.858;2023-07-13T10:41:24;98838.50;;;15.39;79.03
34674;BME280;20879;55.668;37.858;2023-07-13T10:43:56;98849.84;;;15.38;78.97
34674;BME280;20879;55.668;37.858;2023-07-13T10:46:27;98841.34;;;15.34;78.44
34674;BME280;20879;55.668;37.858;2023-07-13T10:49:01;98850.31;;;15.29;78.62
34674;BME280;20879;55.668;37.858;2023-07-13T10:51:37;98855.59;;;15.27;78.79
34674;BME280;20879;55.668;37.858;2023-07-13T10:54:16;98860.94;;;15.24;79.33
34674;BME280;20879;55.668;37.858;2023-07-13T10:56:53;98866.31;;;15.21;78.85
34674;BME280;20879;55.668;37.858;2023-07-13T10:59:28;98854.56;;;15.12;78.88
34674;BME280;20879;55.668;37.858;2023-07-13T11:02:22;98864.97;;;15.12;79.67
34674;BME280;20879;55.668;37.858;2023-07-13T11:04:56;98853.38;;;15.00;79.36
34674;BME280;20879;55.668;37.858;2023-07-13T11:07:52;98858.03;;;14.94;80.94
34674;BME280;20879;55.668;37.858;2023-07-13T11:10:47;98860.00;;;14.89;81.25
34674;BME280;20879;55.668;37.858;2023-07-13T11:16:42;98836.41;;;14.73;82.17
34674;BME280;20879;55.668;37.858;2023-07-13T11:19:37;98855.00;;;14.84;81.36
34674;BME280;20879;55.668;37.858;2023-07-13T11:22:17;98848.31;;;14.78;81.25
34674;BME280;20879;55.668;37.858;2023-07-13T11:24:58;98856.34;;;14.74;81.82
34674;BME280;20879;55.668;37.858;2023-07-13T11:27:39;98849.44;;;14.73;82.55
34674;BME280;20879;55.668;37.858;2023-07-13T11:30:35;98862.97;;;14.81;81.83
34674;BME280;20879;55.668;37.858;2023-07-13T11:33:18;98858.97;;;14.74;82.13
34674;BME280;20879;55.668;37.858;2023-07-13T11:35:59;98867.53;;;14.76;82.37
34674;BME280;20879;55.668;37.858;2023-07-13T11:38:39;98849.38;;;14.74;82.53
34674;BME280;20879;55.668;37.858;2023-07-13T11:41:15;98850.16;;;14.76;83.59
34674;BME280;20879;55.668;37.858;2023-07-13T11:43:54;98853.59;;;14.77;83.78
34674;BME280;20879;55.668;37.858;2023-07-13T11:46:26;98846.50;;;14.80;83.89
34674;BME280;20879;55.668;37.858;2023-07-13T11:49:06;98851.44;;;14.87;83.93
34674;BME280;20879;55.668;37.858;2023-07-13T11:51:36;98850.53;;;14.88;83.65
34674;BME280;20879;55.668;37.858;2023-07-13T11:54:27;98838.75;;;14.79;84.52
34674;BME280;20879;55.668;37.858;2023-07-13T11:57:00;98846.75;;;14.93;84.03
34674;BME280;20879;55.668;37.858;2023-07-13T11:59:38;98844.22;;;14.92;84.31
34674;BME280;20879;55.668;37.858;2023-07-13T12:02:15;98841.38;;;14.96;83.89
34674;BME280;20879;55.668;37.858;2023-07-13T12:04:45;98841.53;;;14.93;84.60
34674;BME280;20879;55.668;37.858;2023-07-13T12:07:21;98843.25;;;14.94;84.51
34674;BME280;20879;55.668;37.858;2023-07-13T12:09:52;98843.88;;;14.99;85.12
34674;BME280;20879;55.668;37.858;2023-07-13T12:12:29;98838.53;;;15.02;84.96
34674;BME280;20879;55.668;37.858;2023-07-13T12:14:58;98846.88;;;15.09;84.79
34674;BME280;20879;55.668;37.858;2023-07-13T12:17:30;98840.00;;;15.08;84.57
34674;BME280;20879;55.668;37.858;2023-07-13T12:20:11;98851.09;;;15.12;84.83
34674;BME280;20879;55.668;37.858;2023-07-13T12:22:46;98854.00;;;15.06;84.66
34674;BME280;20879;55.668;37.858;2023-07-13T12:25:18;98840.97;;;15.06;84.08
34674;BME280;20879;55.668;37.858;2023-07-13T12:27:58;98855.63;;;15.08;84.21
34674;BME280;20879;55.668;37.858;2023-07-13T12:30:29;98844.66;;;15.01;84.73
34674;BME280;20879;55.668;37.858;2023-07-13T12:33:07;98831.31;;;15.08;84.98
34674;BME280;20879;55.668;37.858;2023-07-13T12:35:52;98837.31;;;15.10;85.01
34674;BME280;20879;55.668;37.858;2023-07-13T12:38:33;98834.78;;;15.08;85.49
34674;BME280;20879;55.668;37.858;2023-07-13T12:41:04;98834.63;;;15.11;85.00
34674;BME280;20879;55.668;37.858;2023-07-13T12:50:19;98834.81;;;14.70;85.31
34674;BME280;20879;55.668;37.858;2023-07-13T12:52:52;98835.94;;;14.64;86.88
34674;BME280;20879;55.668;37.858;2023-07-13T12:55:21;98837.81;;;14.80;86.45
34674;BME280;20879;55.668;37.858;2023-07-13T12:57:57;98832.97;;;14.72;86.72
34674;BME280;20879;55.668;37.858;2023-07-13T13:00:30;98820.84;;;14.71;87.48
34674;BME280;20879;55.668;37.858;2023-07-13T13:03:07;98835.59;;;14.72;87.28
34674;BME280;20879;55.668;37.858;2023-07-13T13:06:05;98846.91;;;14.71;87.13
34674;BME280;20879;55.668;37.858;2023-07-13T13:08:36;98843.53;;;14.69;87.57
34674;BME280;20879;55.668;37.858;2023-07-13T13:11:14;98834.75;;;14.72;88.22
34674;BME280;20879;55.668;37.858;2023-07-13T13:13:45;98803.88;;;14.62;88.20
34674;BME280;20879;55.668;37.858;2023-07-13T13:16:19;98814.38;;;14.80;88.03
34674;BME280;20879;55.668;37.858;2023-07-13T13:18:50;98826.56;;;14.79;87.54
34674;BME280;20879;55.668;37.858;2023-07-13T13:21:23;98812.88;;;14.74;87.14
34674;BME280;20879;55.668;37.858;2023-07-13T13:23:53;98818.19;;;14.73;86.87
34674;BME280;20879;55.668;37.858;2023-07-13T13:26:27;98828.13;;;14.64;87.37
34674;BME280;20879;55.668;37.858;2023-07-13T13:28:57;98835.06;;;14.64;86.93
34674;BME280;20879;55.668;37.858;2023-07-13T13:31:27;98830.91;;;14.60;87.17
34674;BME280;20879;55.668;37.858;2023-07-13T13:33:56;98826.69;;;14.57;87.68
34674;BME280;20879;55.668;37.858;2023-07-13T13:36:33;98828.44;;;14.57;88.17
34674;BME280;20879;55.668;37.858;2023-07-13T13:39:19;98830.97;;;14.58;88.01